createdAt,value
2018-09-22T00:00:48.686Z,23.67
2018-09-22T00:05:51.958Z,23.67
2018-09-22T00:10:55.238Z,23.65
2018-09-22T00:15:58.514Z,23.66
2018-09-22T00:21:01.927Z,23.59
2018-09-22T00:26:05.202Z,23.61
2018-09-22T00:31:08.483Z,23.56
2018-09-22T00:36:11.775Z,23.53
2018-09-22T00:41:15.052Z,23.51
2018-09-22T00:46:18.478Z,23.48
2018-09-22T00:51:21.759Z,23.51
2018-09-22T00:56:25.038Z,23.48
2018-09-22T01:01:28.318Z,23.49
2018-09-22T01:06:31.595Z,23.44
2018-09-22T01:11:34.874Z,23.47
2018-09-22T01:16:38.442Z,23.44
2018-09-22T01:21:41.734Z,23.43
2018-09-22T01:26:45.019Z,23.38
2018-09-22T01:31:48.314Z,23.30
2018-09-22T01:36:51.606Z,23.31
2018-09-22T01:41:54.886Z,23.33
2018-09-22T01:46:58.192Z,23.27
2018-09-22T01:52:01.469Z,23.25
2018-09-22T01:57:04.758Z,23.23
2018-09-22T02:02:08.055Z,23.27
2018-09-22T02:07:11.339Z,23.25
2018-09-22T02:12:14.629Z,23.24
2018-09-22T02:17:17.909Z,23.19
2018-09-22T02:22:21.274Z,23.21
2018-09-22T02:27:24.554Z,23.19
2018-09-22T02:32:27.867Z,23.16
2018-09-22T02:37:31.150Z,23.20
2018-09-22T02:42:34.441Z,23.12
2018-09-22T02:47:37.727Z,23.10
2018-09-22T02:52:40.997Z,23.12
2018-09-22T02:57:44.278Z,23.13
2018-09-22T03:02:47.588Z,23.08
2018-09-22T03:07:50.970Z,23.09
2018-09-22T03:12:54.255Z,23.06
2018-09-22T03:17:57.551Z,23.04
2018-09-22T03:23:00.840Z,23.03
2018-09-22T03:28:04.122Z,23.03
2018-09-22T03:33:07.410Z,22.93
2018-09-22T03:38:10.774Z,22.97
2018-09-22T03:43:14.058Z,22.86
2018-09-22T03:48:17.332Z,22.94
2018-09-22T03:53:20.615Z,22.92
2018-09-22T03:58:23.899Z,22.90
2018-09-22T04:03:27.185Z,22.87
2018-09-22T04:08:30.464Z,22.90
2018-09-22T04:13:33.878Z,22.87
2018-09-22T04:18:37.171Z,22.83
2018-09-22T04:23:40.458Z,22.86
2018-09-22T04:28:43.739Z,22.83
2018-09-22T04:33:47.019Z,22.80
2018-09-22T04:38:50.303Z,22.78
2018-09-22T04:43:53.610Z,22.80
2018-09-22T04:48:56.932Z,22.78
2018-09-22T04:54:00.258Z,22.79
2018-09-22T04:59:03.558Z,22.76
2018-09-22T05:04:06.854Z,22.76
2018-09-22T05:09:11.962Z,22.65
2018-09-22T05:14:15.266Z,22.73
2018-09-22T05:19:18.543Z,22.70
2018-09-22T05:24:21.843Z,22.68
2018-09-22T05:29:25.118Z,22.71
2018-09-22T05:34:28.394Z,22.67
2018-09-22T05:39:31.679Z,22.70
2018-09-22T05:44:34.958Z,22.69
2018-09-22T05:49:38.243Z,22.72
2018-09-22T05:54:41.524Z,22.71
2018-09-22T05:59:44.811Z,22.68
2018-09-22T06:04:48.090Z,22.67
2018-09-22T06:09:51.374Z,22.66
2018-09-22T06:14:54.662Z,22.63
2018-09-22T06:19:57.959Z,22.70
2018-09-22T06:25:01.241Z,22.67
2018-09-22T06:30:04.691Z,22.71
2018-09-22T06:35:07.971Z,22.73
2018-09-22T06:40:11.259Z,22.70
2018-09-22T06:45:14.533Z,22.79
2018-09-22T06:50:17.818Z,22.80
2018-09-22T06:55:21.106Z,22.81
2018-09-22T07:00:24.499Z,22.95
2018-09-22T07:05:27.787Z,22.37
2018-09-22T07:10:31.063Z,22.21
2018-09-22T07:15:34.334Z,22.72
2018-09-22T07:20:37.636Z,22.86
2018-09-22T07:25:40.913Z,22.94
2018-09-22T07:30:44.231Z,23.00
2018-09-22T07:35:47.498Z,23.04
2018-09-22T07:40:50.787Z,23.09
2018-09-22T07:45:54.178Z,23.18
2018-09-22T07:50:57.438Z,23.21
2018-09-22T07:56:00.895Z,23.28
2018-09-22T08:01:04.191Z,23.32
2018-09-22T08:06:07.495Z,23.39
2018-09-22T08:11:10.774Z,23.48
2018-09-22T08:16:14.055Z,23.53
2018-09-22T08:21:17.361Z,23.62
2018-09-22T08:26:20.895Z,23.65
2018-09-22T08:31:24.181Z,23.71
2018-09-22T08:36:27.569Z,23.75
2018-09-22T08:41:30.783Z,23.78
2018-09-22T08:46:34.066Z,23.79
2018-09-22T08:51:37.542Z,23.85
2018-09-22T08:56:40.838Z,23.88
2018-09-22T09:01:44.113Z,23.86
2018-09-22T09:06:47.399Z,23.88
2018-09-22T09:11:50.684Z,23.92
2018-09-22T09:16:53.980Z,23.97
2018-09-22T09:21:57.270Z,24.03
2018-09-22T09:27:01.006Z,24.03
2018-09-22T09:32:04.282Z,24.08
2018-09-22T09:37:07.631Z,24.13
2018-09-22T09:42:11.075Z,24.12
2018-09-22T09:47:14.359Z,24.13
2018-09-22T09:52:17.635Z,24.06
2018-09-22T09:57:20.919Z,24.06
2018-09-22T10:02:24.200Z,23.85
2018-09-22T10:07:27.541Z,24.00
2018-09-22T10:12:30.830Z,23.91
2018-09-22T10:17:34.099Z,24.04
2018-09-22T10:22:37.642Z,24.20
2018-09-22T10:27:41.021Z,24.25
2018-09-22T10:32:44.427Z,24.29
2018-09-22T10:37:47.715Z,24.32
2018-09-22T10:42:51.051Z,24.35
2018-09-22T10:47:54.540Z,24.38
2018-09-22T10:52:57.881Z,24.41
2018-09-22T10:58:01.164Z,24.40
2018-09-22T11:03:04.482Z,24.43
2018-09-22T11:08:07.953Z,24.46
2018-09-22T11:13:11.291Z,24.48
2018-09-22T11:18:14.809Z,24.49
2018-09-22T11:23:18.255Z,24.50
2018-09-22T11:28:21.779Z,24.51
2018-09-22T11:33:25.136Z,24.53
2018-09-22T11:38:28.540Z,24.55
2018-09-22T11:43:31.992Z,24.55
2018-09-22T11:48:35.272Z,24.56
2018-09-22T11:53:39.079Z,24.54
2018-09-22T11:58:42.442Z,24.55
2018-09-22T12:03:45.908Z,24.50
2018-09-22T12:08:49.271Z,24.54
2018-09-22T12:13:52.759Z,24.55
2018-09-22T12:18:56.079Z,24.54
2018-09-22T12:23:59.542Z,24.60
2018-09-22T12:29:03.172Z,24.61
2018-09-22T12:34:07.008Z,24.64
2018-09-22T12:43:31.795Z,24.67
2018-09-22T12:48:35.222Z,24.65
2018-09-22T12:53:38.808Z,24.65
2018-09-22T12:58:42.567Z,24.66
2018-09-22T13:03:45.879Z,24.67
2018-09-22T13:08:49.726Z,24.71
2018-09-22T13:13:53.019Z,24.71
2018-09-22T13:18:56.311Z,24.71
2018-09-22T13:23:59.602Z,24.76
2018-09-22T13:29:03.042Z,24.71
2018-09-22T13:34:06.653Z,24.79
2018-09-22T13:39:11.443Z,24.80
2018-09-22T13:44:14.726Z,24.82
2018-09-22T13:49:18.038Z,24.79
2018-09-22T13:54:21.346Z,24.81
2018-09-22T13:59:24.722Z,24.82
2018-09-22T14:04:28.167Z,24.80
2018-09-22T14:09:31.826Z,24.81
2018-09-22T14:14:35.107Z,24.83
2018-09-22T14:19:38.391Z,24.83
2018-09-22T14:24:41.681Z,24.82
2018-09-22T14:29:45.139Z,24.75
2018-09-22T14:34:48.435Z,24.83
2018-09-22T14:39:51.714Z,24.81
2018-09-22T14:44:55.076Z,24.81
2018-09-22T14:49:58.354Z,24.78
2018-09-22T14:55:01.699Z,24.78
2018-09-22T15:00:05.290Z,24.74
2018-09-22T15:05:08.582Z,24.75
2018-09-22T15:10:11.862Z,24.74
2018-09-22T15:15:15.134Z,24.73
2018-09-22T15:20:18.429Z,24.75
2018-09-22T15:25:21.727Z,24.77
2018-09-22T15:30:25.047Z,24.85
2018-09-22T15:35:28.370Z,24.85
2018-09-22T15:40:31.675Z,24.84
2018-09-22T15:45:35.002Z,24.84
2018-09-22T15:50:38.279Z,24.78
2018-09-22T15:55:41.571Z,24.74
2018-09-22T16:00:45.126Z,24.76
2018-09-22T16:05:48.428Z,24.69
2018-09-22T16:10:51.715Z,24.69
2018-09-22T16:15:55.009Z,24.65
2018-09-22T16:20:58.318Z,24.65
2018-09-22T16:26:01.615Z,24.64
2018-09-22T16:31:04.899Z,24.63
2018-09-22T16:36:08.173Z,24.64
2018-09-22T16:41:11.499Z,24.61
2018-09-22T16:46:14.823Z,24.60
2018-09-22T16:51:18.124Z,24.59
2018-09-22T16:56:21.977Z,24.58
2018-09-22T17:01:25.265Z,24.57
2018-09-22T17:06:28.974Z,24.55
2018-09-22T17:11:32.250Z,24.56
2018-09-22T17:16:35.572Z,24.53
2018-09-22T17:21:38.854Z,24.55
2018-09-22T17:26:42.239Z,24.53
2018-09-22T17:31:45.518Z,24.55
2018-09-22T17:36:48.826Z,24.53
2018-09-22T17:41:52.146Z,24.53
2018-09-22T17:46:55.455Z,24.51
2018-09-22T17:51:58.862Z,24.50
2018-09-22T17:57:02.141Z,24.50
2018-09-22T18:02:05.591Z,24.50
2018-09-22T18:07:08.892Z,24.50
2018-09-22T18:12:12.254Z,24.50
2018-09-22T18:17:15.538Z,24.50
2018-09-22T18:22:18.994Z,24.50
2018-09-22T18:27:22.387Z,24.52
2018-09-22T18:32:26.117Z,24.50
2018-09-22T18:37:29.434Z,24.50
2018-09-22T18:42:32.766Z,24.50
2018-09-22T18:47:36.063Z,24.49
2018-09-22T18:52:39.398Z,24.50
2018-09-22T18:57:42.674Z,24.50
2018-09-22T19:02:46.616Z,24.50
2018-09-22T19:07:50.218Z,24.50
2018-09-22T19:12:54.026Z,24.48
2018-09-22T19:18:07.082Z,24.48
2018-09-22T19:23:18.359Z,24.46
2018-09-22T19:28:27.122Z,24.48
2018-09-22T19:33:38.078Z,24.49
2018-09-22T19:38:46.039Z,24.47
2018-09-22T19:43:55.450Z,24.47
2018-09-22T19:49:05.678Z,24.47
2018-09-22T19:54:09.003Z,24.47
2018-09-22T19:59:12.674Z,24.46
2018-09-22T20:04:16.796Z,24.44
2018-09-22T20:09:20.104Z,24.44
2018-09-22T20:14:23.382Z,24.39
2018-09-22T20:19:27.136Z,24.36
2018-09-22T20:24:31.710Z,24.35
2018-09-22T20:29:35.399Z,24.34
2018-09-22T20:34:39.794Z,24.34
2018-09-22T20:39:43.698Z,24.31
2018-09-22T20:44:47.500Z,24.30
2018-09-22T20:49:51.198Z,24.30
2018-09-22T20:54:54.713Z,24.27
2018-09-22T20:59:58.078Z,24.25
2018-09-22T21:05:01.369Z,24.28
2018-09-22T21:10:05.888Z,24.27
2018-09-22T21:15:09.544Z,24.26
2018-09-22T21:20:13.111Z,24.26
2018-09-22T21:25:17.361Z,24.25
2018-09-22T21:30:21.347Z,24.23
2018-09-22T21:35:24.990Z,24.22
2018-09-22T21:40:29.194Z,24.22
2018-09-22T21:45:32.609Z,24.26
2018-09-22T21:50:35.982Z,24.26
2018-09-22T21:55:39.295Z,24.23
2018-09-22T22:00:42.623Z,24.23
2018-09-22T22:05:46.116Z,24.23
2018-09-22T22:10:49.418Z,24.19
2018-09-22T22:15:52.795Z,24.18
2018-09-22T22:20:56.362Z,24.18
2018-09-22T22:25:59.764Z,24.19
2018-09-22T22:31:03.170Z,24.18
2018-09-22T22:36:07.860Z,24.21
2018-09-22T22:41:12.802Z,24.19
2018-09-22T22:46:18.535Z,24.17
2018-09-22T22:51:22.965Z,24.16
2018-09-22T22:56:26.558Z,24.18
2018-09-22T23:01:29.853Z,24.16
2018-09-22T23:06:33.138Z,24.18
2018-09-22T23:11:36.434Z,24.16
2018-09-22T23:16:39.719Z,24.14
2018-09-22T23:21:43.131Z,24.15
2018-09-22T23:26:46.427Z,24.15
2018-09-22T23:31:49.706Z,24.14
2018-09-22T23:36:53.050Z,24.14
2018-09-22T23:41:56.330Z,24.13
2018-09-22T23:46:59.610Z,24.11
2018-09-22T23:52:02.902Z,24.13
2018-09-22T23:57:06.462Z,24.11
